Time;durP1;ratioP1;P1;durP2;ratioP2;P2;SDS_P1;SDS_P2;PMS_P1;PMS_P2;Temp;Humidity;BMP_temperature;BMP_pressure;BME280_temperature;BME280_humidity;BME280_pressure;Samples;Min_cycle;Max_cycle;Signal;HPM_P1;HPM_P2
2022/05/30 00:02:11;;;;;;;0.45;0.30;;;20.70;56.10;;;;;;4960405;28;20039;-12
2022/05/30 00:04:37;;;;;;;0.70;0.20;;;20.70;56.20;;;;;;4960055;28;20053;-13
2022/05/30 00:07:05;;;;;;;0.40;0.30;;;20.70;56.60;;;;;;4977378;28;20463;-14
2022/05/30 00:09:30;;;;;;;0.35;0.30;;;20.70;56.50;;;;;;4978282;28;20053;-15
2022/05/30 00:11:56;;;;;;;0.20;0.10;;;20.70;56.90;;;;;;4979525;28;20039;-13
2022/05/30 00:14:22;;;;;;;0.40;0.20;;;20.70;56.40;;;;;;4978730;28;20064;-12
2022/05/30 00:16:47;;;;;;;0.85;0.20;;;20.70;56.40;;;;;;4967745;28;20039;-13
2022/05/30 00:19:13;;;;;;;0.30;0.30;;;20.70;56.40;;;;;;4959731;28;20047;-14
2022/05/30 00:21:38;;;;;;;0.20;0.20;;;20.70;56.20;;;;;;4960193;28;20122;-13
2022/05/30 00:24:04;;;;;;;0.10;0.10;;;20.70;56.40;;;;;;4964755;28;20051;-12
2022/05/30 00:26:30;;;;;;;1.75;0.40;;;20.70;56.50;;;;;;4978828;28;20046;-13
2022/05/30 00:28:55;;;;;;;0.30;0.30;;;20.60;56.50;;;;;;4979455;28;20043;-13
2022/05/30 00:31:21;;;;;;;1.00;0.30;;;20.60;56.50;;;;;;4978613;28;20576;-12
2022/05/30 00:33:47;;;;;;;0.25;0.20;;;20.60;56.50;;;;;;4979120;28;20043;-13
2022/05/30 00:36:13;;;;;;;0.17;0.10;;;20.60;56.50;;;;;;4978683;28;20136;-13
2022/05/30 00:38:39;;;;;;;0.30;0.22;;;20.60;56.40;;;;;;4977925;28;20053;-12
2022/05/30 00:41:06;;;;;;;0.20;0.10;;;20.60;56.20;;;;;;4975139;28;20047;-13
2022/05/30 00:43:37;;;;;;;0.45;0.22;;;20.60;56.60;;;;;;4958959;28;20047;-14
2022/05/30 00:46:12;;;;;;;1.15;0.20;;;20.60;56.20;;;;;;4958450;28;20066;-13
2022/05/30 00:48:45;;;;;;;0.30;0.22;;;20.60;56.70;;;;;;4965854;28;20045;-13
2022/05/30 00:51:13;;;;;;;0.55;0.40;;;20.60;56.30;;;;;;4977303;28;20035;-14
2022/05/30 00:53:40;;;;;;;0.25;0.20;;;20.60;56.30;;;;;;4965738;28;20082;-12
2022/05/30 00:56:06;;;;;;;0.30;0.17;;;20.50;56.40;;;;;;4959195;28;20099;-13
2022/05/30 00:58:33;;;;;;;0.35;0.20;;;20.60;56.30;;;;;;4976161;28;20584;-13
2022/05/30 01:00:59;;;;;;;0.40;0.40;;;20.60;56.40;;;;;;4977627;28;20043;-13
2022/05/30 01:08:53;;;;;;;0.20;0.20;;;20.60;56.60;;;;;;4978020;28;19921;-13
2022/05/30 01:11:18;;;;;;;0.22;0.20;;;20.60;56.30;;;;;;4976802;28;20047;-13
2022/05/30 01:13:44;;;;;;;0.43;0.20;;;20.60;56.50;;;;;;4978303;28;20618;-13
2022/05/30 01:16:10;;;;;;;0.38;0.35;;;20.60;56.50;;;;;;4977855;28;20113;-12
2022/05/30 01:18:42;;;;;;;0.20;0.10;;;20.60;56.50;;;;;;4977956;28;20121;-12
2022/05/30 01:21:39;;;;;;;0.20;0.20;;;20.60;56.30;;;;;;4978094;28;20057;-12
2022/05/30 01:24:29;;;;;;;0.17;0.10;;;20.60;56.30;;;;;;4977308;28;20055;-14
2022/05/30 01:27:10;;;;;;;0.10;0.10;;;20.60;56.30;;;;;;4976745;28;20050;-14
2022/05/30 01:29:42;;;;;;;0.30;0.20;;;20.60;56.20;;;;;;4976532;28;20055;-13
2022/05/30 01:32:08;;;;;;;0.20;0.10;;;20.60;56.30;;;;;;4966777;28;20420;-13
2022/05/30 01:34:33;;;;;;;0.38;0.30;;;20.60;56.20;;;;;;4958215;28;20412;-12
2022/05/30 01:36:59;;;;;;;0.32;0.28;;;20.60;56.20;;;;;;4970261;28;20542;-12
2022/05/30 01:39:25;;;;;;;0.30;0.20;;;20.70;56.20;;;;;;4992267;28;20035;-12
2022/05/30 01:41:50;;;;;;;0.95;0.20;;;20.70;56.10;;;;;;4976269;28;20053;-12
2022/05/30 01:44:16;;;;;;;0.20;0.10;;;20.60;56.20;;;;;;4977330;28;20089;-13
2022/05/30 01:46:42;;;;;;;0.30;0.28;;;20.60;56.30;;;;;;4977494;28;20071;-12
2022/05/30 01:49:07;;;;;;;0.30;0.30;;;20.70;56.20;;;;;;4978041;28;20043;-13
2022/05/30 01:51:33;;;;;;;0.30;0.20;;;20.60;56.20;;;;;;4976920;28;20073;-14
2022/05/30 01:53:59;;;;;;;0.20;0.13;;;20.60;56.30;;;;;;4963815;28;20158;-13
2022/05/30 01:56:25;;;;;;;0.25;0.22;;;20.60;56.40;;;;;;4957974;28;20051;-12
2022/05/30 01:58:50;;;;;;;0.57;0.20;;;20.60;56.30;;;;;;4977353;28;20046;-12
2022/05/30 02:01:18;;;;;;;0.25;0.17;;;20.60;56.20;;;;;;4977283;28;20631;-13
2022/05/30 02:03:44;;;;;;;0.20;0.20;;;20.60;56.20;;;;;;4976229;28;20137;-13
2022/05/30 02:06:10;;;;;;;0.20;0.20;;;20.60;56.20;;;;;;4976808;28;20053;-13
2022/05/30 02:08:35;;;;;;;0.30;0.30;;;20.60;56.20;;;;;;4976685;28;20039;-13
2022/05/30 02:11:01;;;;;;;0.25;0.17;;;20.60;56.20;;;;;;4976771;28;20412;-13
2022/05/30 02:13:27;;;;;;;0.10;0.10;;;20.60;56.30;;;;;;4976311;28;20043;-13
2022/05/30 02:18:37;;;;;;;0.30;0.20;;;20.50;56.20;;;;;;4957547;28;20038;-13
2022/05/30 02:21:02;;;;;;;0.20;0.20;;;20.60;56.20;;;;;;4957844;28;20047;-13
2022/05/30 02:23:28;;;;;;;0.20;0.20;;;20.60;56.10;;;;;;4976207;28;20085;-14
2022/05/30 02:25:53;;;;;;;0.30;0.20;;;20.60;56.30;;;;;;4976867;28;20109;-13
2022/05/30 02:28:19;;;;;;;0.30;0.20;;;20.50;56.30;;;;;;4976763;28;20067;-14
2022/05/30 02:30:45;;;;;;;1.05;0.10;;;20.60;56.20;;;;;;4976111;28;20055;-13
2022/05/30 02:38:39;;;;;;;0.10;0.10;;;20.60;56.20;;;;;;4961770;28;20416;-13
2022/05/30 02:41:04;;;;;;;0.10;0.10;;;20.60;56.20;;;;;;4958167;28;20043;-14
2022/05/30 02:43:30;;;;;;;0.20;0.20;;;20.60;56.20;;;;;;4956943;28;20127;-12
2022/05/30 02:45:56;;;;;;;0.20;0.10;;;20.60;56.20;;;;;;4957596;28;20050;-12
2022/05/30 02:48:21;;;;;;;0.10;0.10;;;20.60;56.30;;;;;;4957091;28;20035;-15
2022/05/30 02:50:47;;;;;;;0.10;0.10;;;20.60;56.40;;;;;;4966714;28;20046;-13
2022/05/30 02:53:13;;;;;;;0.10;0.10;;;20.60;56.40;;;;;;4976506;28;20110;-13
2022/05/30 02:55:38;;;;;;;0.47;0.28;;;20.60;56.50;;;;;;4976248;28;20046;-14
2022/05/30 02:58:04;;;;;;;0.20;0.20;;;20.50;56.30;;;;;;4974897;28;20046;-13
2022/05/30 03:00:29;;;;;;;0.13;0.13;;;20.50;56.40;;;;;;4975857;28;20504;-13
2022/05/30 03:02:55;;;;;;;0.43;0.30;;;20.50;56.20;;;;;;4976676;28;20086;-12
2022/05/30 03:05:21;;;;;;;0.60;0.50;;;20.50;56.50;;;;;;4976639;28;20062;-13
2022/05/30 03:07:46;;;;;;;0.30;0.20;;;20.50;56.60;;;;;;4975077;28;20074;-13
2022/05/30 03:10:12;;;;;;;0.73;0.30;;;20.50;56.50;;;;;;4976755;28;20047;-12
2022/05/30 03:12:37;;;;;;;0.17;0.10;;;20.50;56.40;;;;;;4975350;28;20039;-13
2022/05/30 03:15:03;;;;;;;0.20;0.10;;;20.50;56.50;;;;;;4976010;28;20043;-13
2022/05/30 03:17:29;;;;;;;0.20;0.20;;;20.50;56.60;;;;;;4975871;28;20039;-13
2022/05/30 03:19:54;;;;;;;0.45;0.22;;;20.50;56.50;;;;;;4975964;28;20411;-13
2022/05/30 03:22:20;;;;;;;0.30;0.20;;;20.50;56.50;;;;;;4975922;28;20050;-13
2022/05/30 03:24:46;;;;;;;0.10;0.10;;;20.50;56.30;;;;;;4974367;28;20059;-13
2022/05/30 03:27:11;;;;;;;0.30;0.28;;;20.50;56.20;;;;;;4976496;28;20031;-14
2022/05/30 03:29:37;;;;;;;0.13;0.10;;;20.50;56.40;;;;;;4975176;28;20412;-14
2022/05/30 03:32:03;;;;;;;0.22;0.20;;;20.50;56.50;;;;;;4976503;28;20122;-13
2022/05/30 03:34:29;;;;;;;0.30;0.20;;;20.50;56.40;;;;;;4962593;28;20054;-13
2022/05/30 03:36:54;;;;;;;0.32;0.20;;;20.50;56.40;;;;;;4975709;28;20100;-13
2022/05/30 03:39:20;;;;;;;0.52;0.20;;;20.50;56.60;;;;;;4974571;28;20445;-12
2022/05/30 03:41:45;;;;;;;0.20;0.20;;;20.50;56.50;;;;;;4978366;28;20035;-13
2022/05/30 03:44:11;;;;;;;0.20;0.20;;;20.50;56.80;;;;;;4977923;28;20045;-13
2022/05/30 03:46:36;;;;;;;0.20;0.10;;;20.50;56.60;;;;;;4978140;28;20066;-14
2022/05/30 03:49:02;;;;;;;0.38;0.20;;;20.50;56.50;;;;;;4978822;28;20129;-14
2022/05/30 03:51:28;;;;;;;0.30;0.30;;;20.40;56.70;;;;;;4973723;28;20582;-12
2022/05/30 03:53:53;;;;;;;0.10;0.10;;;20.50;56.90;;;;;;4975325;28;20050;-13
2022/05/30 03:56:19;;;;;;;0.30;0.20;;;20.40;56.60;;;;;;4978373;28;20039;-13
2022/05/30 03:58:45;;;;;;;0.17;0.10;;;20.40;56.70;;;;;;4978546;28;21101;-14
2022/05/30 04:01:10;;;;;;;0.40;0.20;;;20.50;56.70;;;;;;4978693;28;20057;-13
2022/05/30 04:03:36;;;;;;;0.30;0.20;;;20.40;56.60;;;;;;4978403;28;20043;-12
2022/05/30 04:06:02;;;;;;;0.20;0.20;;;20.40;56.70;;;;;;4977151;28;20054;-12
2022/05/30 04:08:28;;;;;;;0.10;0.10;;;20.40;56.80;;;;;;4978385;28;20050;-15
2022/05/30 04:10:54;;;;;;;0.40;0.40;;;20.40;56.70;;;;;;4978920;28;20055;-16
2022/05/30 04:13:19;;;;;;;0.20;0.10;;;20.40;56.70;;;;;;4979400;28;20134;-13
2022/05/30 04:15:45;;;;;;;0.20;0.20;;;20.40;56.60;;;;;;4976628;28;20120;-12
2022/05/30 04:18:11;;;;;;;0.20;0.20;;;20.40;56.60;;;;;;4970765;28;20047;-13
2022/05/30 04:20:36;;;;;;;0.30;0.13;;;20.40;56.70;;;;;;4977034;28;20543;-12
2022/05/30 04:23:02;;;;;;;0.20;0.10;;;20.40;56.70;;;;;;4978171;28;20050;-12
2022/05/30 04:25:28;;;;;;;0.25;0.10;;;20.40;56.80;;;;;;4977616;28;20057;-12
2022/05/30 04:27:53;;;;;;;0.10;0.10;;;20.40;56.70;;;;;;4978089;28;20051;-13
2022/05/30 04:30:19;;;;;;;0.20;0.20;;;20.40;56.90;;;;;;4978973;28;20047;-13
2022/05/30 04:32:45;;;;;;;0.13;0.10;;;20.40;56.80;;;;;;4977855;28;20098;-12
2022/05/30 04:35:11;;;;;;;0.10;0.10;;;20.40;56.50;;;;;;4979384;28;20112;-13
2022/05/30 04:37:36;;;;;;;0.35;0.35;;;20.40;56.80;;;;;;4970300;28;20059;-13
2022/05/30 04:40:03;;;;;;;0.15;0.15;;;20.30;56.80;;;;;;4978552;28;20520;-13
2022/05/30 04:42:28;;;;;;;0.52;0.20;;;20.40;56.80;;;;;;4977872;28;20054;-15
2022/05/30 04:44:54;;;;;;;0.30;0.30;;;20.40;56.80;;;;;;4978082;28;20043;-13
2022/05/30 04:47:19;;;;;;;0.13;0.13;;;20.40;56.80;;;;;;4978868;28;20047;-13
2022/05/30 04:49:47;;;;;;;0.10;0.10;;;20.30;56.60;;;;;;4977837;28;20051;-13
2022/05/30 04:52:13;;;;;;;0.20;0.20;;;20.40;56.60;;;;;;4978309;28;20043;-13
2022/05/30 04:54:38;;;;;;;0.10;0.10;;;20.40;56.80;;;;;;4977015;28;20043;-13
2022/05/30 04:57:06;;;;;;;0.10;0.10;;;20.30;56.90;;;;;;4978892;28;20126;-13
2022/05/30 04:59:31;;;;;;;0.32;0.30;;;20.30;57.40;;;;;;4977285;28;20137;-15
2022/05/30 05:01:57;;;;;;;0.10;0.10;;;20.30;56.80;;;;;;4978711;28;20054;-13
2022/05/30 05:04:22;;;;;;;0.20;0.20;;;20.30;56.90;;;;;;4978714;28;20432;-13
2022/05/30 05:06:49;;;;;;;0.20;0.20;;;20.30;56.80;;;;;;4976932;28;20039;-13
2022/05/30 05:09:18;;;;;;;0.20;0.20;;;20.30;56.80;;;;;;4978641;28;20515;-13
2022/05/30 05:11:45;;;;;;;0.10;0.10;;;20.30;56.90;;;;;;4627944;28;9999994;-13
2022/05/30 05:14:10;;;;;;;1.42;0.17;;;20.30;56.80;;;;;;4973968;28;20047;-13
2022/05/30 05:16:36;;;;;;;1.63;0.20;;;20.30;56.80;;;;;;4979792;28;20038;-14
2022/05/30 05:19:02;;;;;;;0.22;0.10;;;20.30;57.00;;;;;;4974213;28;20053;-13
2022/05/30 05:21:30;;;;;;;0.47;0.40;;;20.30;57.40;;;;;;4974677;28;20527;-14
2022/05/30 05:23:56;;;;;;;0.55;0.40;;;20.30;57.50;;;;;;4973549;28;20161;-12
2022/05/30 05:26:22;;;;;;;0.30;0.20;;;20.30;57.50;;;;;;4969131;28;20599;-14
2022/05/30 05:28:48;;;;;;;0.32;0.32;;;20.30;56.90;;;;;;4974065;28;20051;-14
2022/05/30 05:31:34;;;;;;;1.98;0.60;;;20.10;54.20;;;;;;4969240;28;20974;-14
2022/05/30 05:34:01;;;;;;;0.63;0.50;;;20.00;52.30;;;;;;4973080;28;20046;-12
2022/05/30 05:36:32;;;;;;;0.65;0.50;;;19.70;52.10;;;;;;4972989;28;20049;-13
2022/05/30 05:38:58;;;;;;;1.60;0.80;;;19.60;52.00;;;;;;4969757;28;20476;-13
2022/05/30 05:41:23;;;;;;;1.35;0.50;;;19.50;51.80;;;;;;4969537;28;20185;-13
2022/05/30 05:43:50;;;;;;;0.60;0.60;;;19.40;51.30;;;;;;4973085;28;20057;-13
2022/05/30 05:46:22;;;;;;;1.48;0.60;;;19.30;51.10;;;;;;4988507;28;20047;-13
2022/05/30 05:48:49;;;;;;;0.57;0.50;;;19.20;51.20;;;;;;4971058;28;20054;-12
2022/05/30 05:51:15;;;;;;;2.50;0.50;;;19.20;51.30;;;;;;4984382;28;20077;-13
2022/05/30 05:53:41;;;;;;;0.77;0.52;;;19.00;51.90;;;;;;4976711;28;20038;-13
2022/05/30 05:56:11;;;;;;;0.38;0.32;;;19.10;51.70;;;;;;4975841;28;20051;-13
2022/05/30 05:58:37;;;;;;;0.85;0.70;;;19.20;51.60;;;;;;4974860;28;20051;-13
2022/05/30 06:01:22;;;;;;;1.50;0.65;;;19.10;51.70;;;;;;4972458;28;20039;-14
2022/05/30 06:03:51;;;;;;;0.60;0.52;;;19.20;51.70;;;;;;4963194;28;20109;-13
2022/05/30 06:06:16;;;;;;;1.95;0.55;;;19.10;52.00;;;;;;4973625;28;20130;-13
2022/05/30 06:08:42;;;;;;;0.40;0.40;;;19.00;52.60;;;;;;4976525;28;20093;-13
2022/05/30 06:11:15;;;;;;;0.98;0.50;;;19.10;52.60;;;;;;4973745;28;20057;-16
2022/05/30 06:13:45;;;;;;;2.90;0.70;;;19.00;52.50;;;;;;4975569;28;20081;-16
2022/05/30 06:16:25;;;;;;;1.92;0.75;;;19.00;52.80;;;;;;4977559;28;20158;-13
2022/05/30 06:18:52;;;;;;;1.05;0.88;;;18.70;53.00;;;;;;4974116;28;20166;-14
2022/05/30 06:21:17;;;;;;;1.45;0.98;;;18.60;53.20;;;;;;4974910;28;20082;-14
2022/05/30 06:23:47;;;;;;;1.48;0.75;;;18.70;53.30;;;;;;4972272;28;20083;-14
2022/05/30 06:26:13;;;;;;;1.55;0.80;;;18.60;53.70;;;;;;4976477;28;20051;-13
2022/05/30 06:28:40;;;;;;;0.73;0.40;;;18.60;53.80;;;;;;4973836;28;20058;-14
2022/05/30 06:31:08;;;;;;;0.77;0.50;;;18.50;54.20;;;;;;4979949;28;20116;-15
2022/05/30 06:33:34;;;;;;;1.08;0.50;;;18.50;54.40;;;;;;4957825;28;20066;-13
2022/05/30 06:36:01;;;;;;;1.05;0.43;;;18.40;54.60;;;;;;4969872;28;20050;-14
2022/05/30 06:38:26;;;;;;;1.02;0.80;;;18.30;54.80;;;;;;4966655;28;20528;-14
2022/05/30 06:40:52;;;;;;;1.80;0.63;;;18.40;54.60;;;;;;4969622;28;20415;-15
2022/05/30 06:43:18;;;;;;;2.00;0.52;;;18.40;54.70;;;;;;4973384;28;20078;-14
2022/05/30 06:45:46;;;;;;;1.88;0.60;;;18.40;54.80;;;;;;4977778;28;20046;-14
2022/05/30 06:48:13;;;;;;;0.93;0.50;;;18.20;55.20;;;;;;4973810;28;20128;-15
2022/05/30 06:50:38;;;;;;;2.50;0.90;;;18.20;55.30;;;;;;4974490;28;20085;-16
2022/05/30 06:53:04;;;;;;;0.60;0.60;;;18.10;55.50;;;;;;4976057;28;20051;-14
2022/05/30 06:55:31;;;;;;;1.02;0.50;;;18.20;55.50;;;;;;4976243;28;20042;-13
2022/05/30 06:58:12;;;;;;;0.88;0.60;;;18.30;55.40;;;;;;4975367;28;20043;-14
2022/05/30 07:00:37;;;;;;;1.73;0.50;;;18.40;55.00;;;;;;4975763;28;20512;-14
2022/05/30 07:03:03;;;;;;;0.85;0.50;;;18.50;55.40;;;;;;4972567;28;20394;-14
2022/05/30 07:05:29;;;;;;;1.75;0.60;;;18.60;54.70;;;;;;4976069;28;20049;-14
2022/05/30 07:07:56;;;;;;;0.85;0.60;;;18.60;54.60;;;;;;4959284;28;20043;-14
2022/05/30 07:10:22;;;;;;;1.25;0.50;;;18.70;54.70;;;;;;4975154;28;20039;-13
2022/05/30 07:12:48;;;;;;;0.68;0.50;;;18.60;54.60;;;;;;4975304;28;20053;-13
2022/05/30 07:15:13;;;;;;;0.80;0.50;;;18.60;54.80;;;;;;4975586;28;20050;-14
2022/05/30 07:17:39;;;;;;;1.77;0.60;;;18.60;54.90;;;;;;4975568;28;20106;-14
2022/05/30 07:20:06;;;;;;;0.80;0.50;;;18.50;54.90;;;;;;4974172;28;20047;-14
2022/05/30 07:22:31;;;;;;;0.32;0.32;;;18.50;55.00;;;;;;4975382;28;20046;-14
2022/05/30 07:24:57;;;;;;;1.70;0.52;;;18.40;55.10;;;;;;4975622;28;20046;-14
2022/05/30 07:27:23;;;;;;;0.40;0.40;;;18.40;55.00;;;;;;4975054;28;20404;-14
2022/05/30 07:29:49;;;;;;;1.20;0.85;;;18.40;55.00;;;;;;4973594;28;20043;-14
2022/05/30 07:32:14;;;;;;;1.40;0.50;;;18.40;55.20;;;;;;4976071;28;20088;-14
2022/05/30 07:34:40;;;;;;;0.50;0.50;;;18.50;55.20;;;;;;4965613;28;20042;-17
2022/05/30 07:37:06;;;;;;;0.68;0.55;;;18.50;55.20;;;;;;4965597;28;20066;-16
2022/05/30 07:39:36;;;;;;;1.10;0.70;;;18.30;55.50;;;;;;4963194;28;20074;-18
2022/05/30 07:42:03;;;;;;;0.98;0.40;;;18.30;55.70;;;;;;4957877;28;20050;-16
2022/05/30 07:44:28;;;;;;;0.60;0.50;;;18.30;55.60;;;;;;4960940;28;20035;-16
2022/05/30 07:46:54;;;;;;;1.00;0.50;;;18.30;55.50;;;;;;4957861;28;20055;-16
2022/05/30 07:49:20;;;;;;;2.20;0.30;;;18.30;55.60;;;;;;4959439;28;20433;-16
2022/05/30 07:51:46;;;;;;;0.50;0.40;;;18.30;55.50;;;;;;4973931;28;20050;-15
2022/05/30 07:54:11;;;;;;;0.50;0.50;;;18.30;55.60;;;;;;4959799;28;20154;-16
2022/05/30 07:56:37;;;;;;;0.50;0.40;;;18.30;55.60;;;;;;4959486;28;20146;-15
2022/05/30 07:59:03;;;;;;;0.88;0.40;;;18.30;55.60;;;;;;4960903;28;20185;-15
2022/05/30 08:01:28;;;;;;;0.88;0.40;;;18.40;55.50;;;;;;4959077;28;20069;-15
2022/05/30 08:03:54;;;;;;;1.05;0.52;;;18.40;55.40;;;;;;4959388;28;20062;-16
2022/05/30 08:06:22;;;;;;;0.80;0.30;;;18.40;55.50;;;;;;4959263;28;20062;-15
2022/05/30 08:08:49;;;;;;;0.80;0.32;;;18.40;55.60;;;;;;4958974;28;20050;-16
2022/05/30 08:11:16;;;;;;;0.57;0.50;;;18.30;55.70;;;;;;4960381;28;20058;-16
2022/05/30 08:13:43;;;;;;;0.90;0.43;;;18.30;55.60;;;;;;4959653;28;20043;-15
2022/05/30 08:16:09;;;;;;;1.80;0.30;;;18.30;55.70;;;;;;4959916;28;20068;-15
2022/05/30 08:18:34;;;;;;;0.28;0.20;;;18.30;55.70;;;;;;4961291;28;20078;-16
2022/05/30 08:21:00;;;;;;;0.30;0.30;;;18.30;56.00;;;;;;4963075;28;20074;-15
2022/05/30 08:23:27;;;;;;;0.50;0.30;;;18.20;56.30;;;;;;4963026;28;21347;-16
2022/05/30 08:25:53;;;;;;;1.98;0.60;;;18.20;56.50;;;;;;4962366;28;20055;-16
2022/05/30 08:28:18;;;;;;;1.98;0.45;;;18.20;56.50;;;;;;4963262;28;20043;-15
2022/05/30 08:30:44;;;;;;;2.55;0.50;;;18.30;56.20;;;;;;4963014;28;20086;-15
2022/05/30 08:33:11;;;;;;;0.50;0.30;;;18.20;55.90;;;;;;4963110;28;20049;-15
2022/05/30 08:35:37;;;;;;;0.73;0.30;;;18.20;55.80;;;;;;4964108;28;20059;-15
2022/05/30 08:38:03;;;;;;;0.50;0.30;;;18.20;55.80;;;;;;4961624;28;20469;-15
2022/05/30 08:43:37;;;;;;;0.65;0.40;;;18.30;55.40;;;;;;4963027;28;20610;-15
2022/05/30 08:46:11;;;;;;;0.40;0.30;;;18.20;55.50;;;;;;4959597;28;20055;-16
2022/05/30 08:49:03;;;;;;;2.15;0.20;;;18.30;55.70;;;;;;4963413;28;20050;-16
2022/05/30 08:51:56;;;;;;;1.85;0.60;;;18.30;55.40;;;;;;4962116;28;20069;-17
2022/05/30 08:54:42;;;;;;;0.57;0.30;;;18.40;55.10;;;;;;4962871;28;20046;-14
2022/05/30 08:57:42;;;;;;;0.50;0.40;;;18.30;55.40;;;;;;4960468;28;21323;-15
2022/05/30 09:00:13;;;;;;;1.20;0.52;;;18.30;55.60;;;;;;4946046;28;20059;-14
2022/05/30 09:02:51;;;;;;;0.73;0.50;;;18.40;55.10;;;;;;4962326;28;20102;-15
2022/05/30 09:05:23;;;;;;;0.45;0.30;;;18.40;54.70;;;;;;4976368;28;20038;-14
2022/05/30 09:07:52;;;;;;;0.63;0.40;;;18.40;54.50;;;;;;4960610;28;20054;-15
2022/05/30 09:10:58;;;;;;;0.22;0.15;;;18.50;54.40;;;;;;4960187;28;20043;-15
2022/05/30 09:13:39;;;;;;;1.15;0.22;;;18.50;54.20;;;;;;4933633;28;20515;-18
2022/05/30 09:16:08;;;;;;;0.60;0.30;;;18.60;53.90;;;;;;4942356;28;20154;-15
2022/05/30 09:18:44;;;;;;;1.40;0.22;;;18.50;53.60;;;;;;4961178;28;20330;-15
2022/05/30 09:21:10;;;;;;;0.55;0.20;;;18.50;53.50;;;;;;4960182;28;20049;-16
2022/05/30 09:23:36;;;;;;;0.52;0.52;;;18.50;53.40;;;;;;4961257;28;20062;-14
2022/05/30 09:26:03;;;;;;;0.93;0.50;;;18.60;53.00;;;;;;4958500;28;20047;-15
2022/05/30 09:28:41;;;;;;;0.60;0.30;;;18.70;52.90;;;;;;4959611;28;20444;-16
2022/05/30 09:31:33;;;;;;;0.50;0.20;;;18.70;52.60;;;;;;4960233;28;20591;-15
2022/05/30 09:33:59;;;;;;;1.25;0.30;;;18.60;52.90;;;;;;4958842;28;20062;-14
2022/05/30 09:36:29;;;;;;;0.63;0.20;;;18.60;53.10;;;;;;4960727;28;20081;-14
2022/05/30 09:39:14;;;;;;;0.77;0.32;;;18.60;53.50;;;;;;4962148;28;20057;-14
2022/05/30 09:41:39;;;;;;;0.32;0.30;;;18.60;53.60;;;;;;4961766;28;20055;-14
2022/05/30 09:44:24;;;;;;;1.55;0.30;;;18.60;53.30;;;;;;4961283;28;20057;-15
2022/05/30 09:46:59;;;;;;;0.65;0.30;;;18.60;53.10;;;;;;4959429;28;20050;-14
2022/05/30 09:49:41;;;;;;;0.30;0.22;;;18.60;52.90;;;;;;4959501;28;20063;-16
2022/05/30 09:52:22;;;;;;;1.67;0.30;;;18.70;52.90;;;;;;4961286;28;20078;-15
2022/05/30 09:54:47;;;;;;;0.20;0.20;;;18.70;52.90;;;;;;4961166;28;20047;-14
2022/05/30 09:57:14;;;;;;;0.93;0.30;;;18.80;52.90;;;;;;4960057;28;20057;-14
2022/05/30 09:59:42;;;;;;;0.93;0.40;;;18.90;52.80;;;;;;4960788;28;20086;-15
2022/05/30 10:02:27;;;;;;;0.40;0.25;;;18.90;52.90;;;;;;4961755;28;20089;-15
2022/05/30 10:05:07;;;;;;;0.40;0.20;;;18.90;53.00;;;;;;4958823;28;20047;-15
2022/05/30 10:07:34;;;;;;;0.40;0.40;;;19.00;52.70;;;;;;4960211;28;20051;-14
2022/05/30 10:10:26;;;;;;;1.10;0.30;;;19.10;52.40;;;;;;4961107;28;20047;-14
2022/05/30 10:12:54;;;;;;;0.70;0.40;;;19.10;52.40;;;;;;4957029;28;20628;-15
2022/05/30 10:15:23;;;;;;;0.60;0.30;;;19.10;53.50;;;;;;4961625;28;20051;-14
2022/05/30 10:17:49;;;;;;;2.03;0.30;;;19.10;52.80;;;;;;4960696;28;20054;-14
2022/05/30 10:20:20;;;;;;;2.20;0.40;;;19.10;53.00;;;;;;4961356;28;20065;-14
2022/05/30 10:29:04;;;;;;;1.30;0.77;;;19.20;52.70;;;;;;4958881;28;20598;-15
2022/05/30 10:31:38;;;;;;;;;;;19.30;53.10;;;;;;4951296;28;20050;-14
2022/05/30 10:34:18;;;;;;;1.25;0.95;;;19.10;53.20;;;;;;4960989;28;20037;-14
2022/05/30 10:36:53;;;;;;;0.75;0.75;;;19.20;53.00;;;;;;4941487;28;20051;-14
2022/05/30 10:39:47;;;;;;;1.08;0.98;;;19.30;52.30;;;;;;4947646;28;20068;-15
2022/05/30 10:42:35;;;;;;;1.75;0.95;;;19.40;52.40;;;;;;4954450;28;20054;-14
2022/05/30 10:45:21;;;;;;;1.70;0.50;;;19.40;52.20;;;;;;4959218;28;20057;-14
2022/05/30 10:47:48;;;;;;;2.05;0.60;;;19.50;51.70;;;;;;4957592;28;20046;-14
2022/05/30 10:50:45;;;;;;;1.02;0.60;;;19.50;51.40;;;;;;4955608;28;20058;-14
2022/05/30 10:53:32;;;;;;;0.63;0.50;;;19.50;51.40;;;;;;4958678;28;20100;-14
2022/05/30 10:56:00;;;;;;;0.93;0.50;;;19.50;51.50;;;;;;4959761;28;20539;-14
2022/05/30 10:58:41;;;;;;;0.77;0.60;;;19.50;51.40;;;;;;4959271;28;20551;-14
2022/05/30 11:01:20;;;;;;;0.75;0.40;;;19.50;51.10;;;;;;4959675;28;20047;-14
2022/05/30 11:03:50;;;;;;;0.77;0.43;;;19.40;50.40;;;;;;4597086;28;10000450;-15
2022/05/30 11:06:28;;;;;;;1.50;0.45;;;19.50;50.30;;;;;;4954281;28;20071;-15
2022/05/30 11:08:55;;;;;;;0.55;0.50;;;19.60;50.40;;;;;;4968876;28;20419;-14
2022/05/30 11:11:39;;;;;;;0.63;0.32;;;19.60;50.30;;;;;;4971748;28;20042;-14
2022/05/30 11:14:26;;;;;;;1.10;0.53;;;19.60;50.20;;;;;;4963630;28;20106;-14
2022/05/30 11:17:16;;;;;;;1.13;0.38;;;19.60;49.70;;;;;;4971640;28;20042;-15
2022/05/30 11:20:12;;;;;;;0.47;0.28;;;19.60;49.50;;;;;;4972765;28;20043;-14
2022/05/30 11:22:40;;;;;;;0.60;0.40;;;19.50;49.20;;;;;;4967467;28;20078;-14
2022/05/30 11:25:08;;;;;;;0.40;0.40;;;19.40;48.60;;;;;;4967249;28;20047;-12
2022/05/30 11:27:37;;;;;;;0.70;0.40;;;19.50;48.50;;;;;;4964363;28;20051;-12
2022/05/30 11:30:25;;;;;;;1.85;0.75;;;19.40;48.30;;;;;;4969846;28;20074;-12
2022/05/30 11:33:06;;;;;;;1.38;0.35;;;19.40;48.60;;;;;;4967501;28;20059;-12
2022/05/30 11:35:43;;;;;;;0.52;0.40;;;19.40;48.60;;;;;;4971441;28;20050;-12
2022/05/30 11:38:11;;;;;;;0.60;0.30;;;19.50;49.10;;;;;;4967520;28;20059;-14
2022/05/30 11:40:55;;;;;;;0.50;0.30;;;19.50;49.30;;;;;;4971121;28;20054;-14
2022/05/30 11:43:32;;;;;;;0.37;0.30;;;19.50;49.20;;;;;;4964591;28;20126;-13
2022/05/30 11:46:32;;;;;;;1.92;0.20;;;19.60;49.30;;;;;;4972048;28;20055;-14
2022/05/30 11:49:17;;;;;;;1.02;0.50;;;19.60;49.30;;;;;;4970709;28;20042;-14
2022/05/30 11:52:12;;;;;;;1.10;0.63;;;19.60;49.30;;;;;;4971450;28;20153;-14
2022/05/30 11:54:53;;;;;;;0.60;0.30;;;19.60;49.20;;;;;;4972146;28;20081;-14
2022/05/30 11:57:35;;;;;;;0.52;0.20;;;19.50;49.00;;;;;;4971781;28;20054;-14
2022/05/30 12:00:10;;;;;;;0.57;0.40;;;19.60;48.70;;;;;;4974673;28;20118;-15
2022/05/30 12:02:58;;;;;;;0.40;0.38;;;19.60;48.70;;;;;;4973177;28;20058;-15
2022/05/30 12:05:31;;;;;;;0.40;0.35;;;19.70;48.60;;;;;;4971754;28;20051;-14
2022/05/30 12:08:19;;;;;;;0.20;0.20;;;19.70;48.90;;;;;;5002735;28;20043;-15
2022/05/30 12:11:27;;;;;;;1.02;0.35;;;19.70;48.40;;;;;;4970118;28;20412;-14
2022/05/30 12:14:42;;;;;;;1.38;0.40;;;19.60;48.40;;;;;;4969264;28;20051;-15
2022/05/30 12:17:26;;;;;;;0.70;0.50;;;19.70;48.70;;;;;;4976055;28;20541;-14
2022/05/30 12:23:49;;;;;;;1.58;0.47;;;19.70;49.00;;;;;;4928366;29;20130;-14
2022/05/30 12:26:15;;;;;;;0.35;0.30;;;19.70;49.10;;;;;;4973364;28;20101;-14
2022/05/30 12:28:44;;;;;;;0.35;0.20;;;19.70;49.80;;;;;;4970692;28;20043;-14
2022/05/30 12:31:10;;;;;;;0.20;0.20;;;19.60;49.10;;;;;;4964699;28;20039;-16
2022/05/30 12:33:46;;;;;;;0.90;0.22;;;19.70;49.30;;;;;;4973436;28;20062;-15
2022/05/30 12:36:16;;;;;;;0.50;0.30;;;19.70;49.10;;;;;;5002170;28;20056;-14
2022/05/30 12:38:54;;;;;;;0.45;0.45;;;19.70;49.30;;;;;;4977028;28;20135;-14
2022/05/30 12:41:34;;;;;;;0.88;0.22;;;19.70;49.10;;;;;;4972261;28;20499;-15
2022/05/30 12:43:59;;;;;;;0.40;0.40;;;19.80;49.70;;;;;;4973690;28;20057;-14
2022/05/30 12:46:28;;;;;;;0.75;0.20;;;19.80;49.70;;;;;;4975786;28;20129;-14
2022/05/30 12:49:16;;;;;;;0.75;0.40;;;19.80;49.70;;;;;;4978226;28;20057;-14
2022/05/30 12:51:57;;;;;;;0.20;0.20;;;19.80;49.40;;;;;;4992942;28;20050;-14
2022/05/30 12:54:27;;;;;;;0.80;0.30;;;19.70;49.30;;;;;;4977707;28;20039;-14
2022/05/30 12:57:00;;;;;;;0.40;0.30;;;19.70;49.20;;;;;;4976773;28;20149;-15
2022/05/30 12:59:33;;;;;;;0.40;0.20;;;19.70;49.10;;;;;;4979441;28;20034;-13
2022/05/30 13:01:59;;;;;;;0.77;0.30;;;19.70;49.20;;;;;;4984633;28;20116;-14
2022/05/30 13:04:26;;;;;;;1.23;0.57;;;19.70;49.50;;;;;;4977226;28;20570;-14
2022/05/30 13:06:57;;;;;;;0.30;0.30;;;19.70;49.30;;;;;;4974747;28;20050;-13
2022/05/30 13:09:28;;;;;;;0.55;0.30;;;19.70;49.00;;;;;;4977872;28;20094;-13
2022/05/30 13:12:17;;;;;;;0.28;0.28;;;19.60;49.20;;;;;;4978631;28;20049;-12
2022/05/30 13:15:01;;;;;;;0.80;0.28;;;19.60;49.60;;;;;;4976654;28;20531;-13
2022/05/30 13:17:50;;;;;;;0.50;0.32;;;19.60;48.90;;;;;;4979221;28;20039;-12
2022/05/30 13:20:21;;;;;;;0.50;0.30;;;19.70;49.00;;;;;;4976080;28;20054;-13
2022/05/30 13:22:54;;;;;;;0.20;0.20;;;19.60;49.00;;;;;;4971883;28;20050;-12
2022/05/30 13:25:43;;;;;;;0.38;0.28;;;19.70;48.70;;;;;;4975790;28;20042;-13
2022/05/30 13:28:19;;;;;;;0.50;0.30;;;19.70;48.30;;;;;;4959230;28;20039;-12
2022/05/30 13:30:44;;;;;;;0.90;0.30;;;19.70;48.40;;;;;;4960431;28;20047;-13
2022/05/30 13:33:34;;;;;;;0.30;0.30;;;19.70;48.70;;;;;;4984878;28;20102;-12